Terminal Aerodrome Forecast
Issued by NWS

Home | Current Version | Previous Version | Text Only | Print | Product List | Glossary On
Versions: 1 2 3 4 5 6 7 8 9 10 11 12 13
829
FTAK31 PAJN 062325
TAFAPG
TAF
PAPG 062325Z 0700/0724 12005KT 5SM RA BR SCT015 OVC025
     FM070200 20008KT 6SM -RA BR SCT006 OVC025
     FM070400 20006KT P6SM -SHRA SCT006 OVC035
     FM071700 VRB03KT P6SM -SHRA BKN035 OVC060
      AMD NOT SKED=

USA.gov is the U.S. government's official web portal to all federal, state and local government web resources and services.